createdAt,value
2023-12-12T00:02:00.429Z,12.91
2023-12-12T00:04:28.112Z,12.95
2023-12-12T00:06:55.493Z,12.94
2023-12-12T00:09:22.724Z,12.89
2023-12-12T00:11:50.664Z,12.81
2023-12-12T00:14:17.976Z,12.78
2023-12-12T00:16:45.290Z,12.75
2023-12-12T00:19:12.631Z,12.75
2023-12-12T00:21:39.906Z,12.73
2023-12-12T00:24:07.984Z,12.70
2023-12-12T00:26:35.224Z,12.67
2023-12-12T00:29:02.641Z,12.65
2023-12-12T00:31:30.010Z,12.63
2023-12-12T00:33:57.685Z,12.62
2023-12-12T00:36:24.973Z,12.62
2023-12-12T00:38:52.411Z,12.63
2023-12-12T00:41:19.669Z,12.63
2023-12-12T00:43:47.074Z,12.63
2023-12-12T00:46:14.570Z,12.66
2023-12-12T00:48:42.167Z,12.65
2023-12-12T00:51:10.425Z,12.61
2023-12-12T00:53:37.900Z,12.61
2023-12-12T00:56:05.547Z,12.59
2023-12-12T00:58:33.060Z,12.56
2023-12-12T01:01:00.488Z,12.54
2023-12-12T01:03:28.698Z,12.54
2023-12-12T01:05:56.010Z,12.53
2023-12-12T01:08:23.420Z,12.52
2023-12-12T01:10:50.656Z,12.51
2023-12-12T01:13:18.084Z,12.52
2023-12-12T01:15:45.300Z,12.52
2023-12-12T01:18:12.645Z,12.57
2023-12-12T01:20:40.017Z,12.57
2023-12-12T01:23:07.354Z,12.57
2023-12-12T01:25:34.990Z,12.56
2023-12-12T01:28:02.306Z,12.55
2023-12-12T01:30:29.913Z,12.50
2023-12-12T01:32:57.285Z,12.46
2023-12-12T01:35:24.571Z,12.44
2023-12-12T01:37:52.019Z,12.44
2023-12-12T01:40:19.427Z,12.49
2023-12-12T01:42:46.727Z,12.53
2023-12-12T01:45:15.989Z,12.60
2023-12-12T01:47:44.707Z,12.68
2023-12-12T01:50:12.413Z,12.71
2023-12-12T01:52:39.956Z,12.69
2023-12-12T01:55:07.873Z,12.64
2023-12-12T01:57:35.314Z,12.60
2023-12-12T02:00:03.674Z,12.60
2023-12-12T02:02:39.878Z,12.65
2023-12-12T02:05:07.414Z,12.71
2023-12-12T02:07:37.155Z,12.84
2023-12-12T02:10:04.913Z,12.97
2023-12-12T02:12:33.498Z,13.02
2023-12-12T02:15:00.883Z,13.05
2023-12-12T02:17:28.596Z,13.06
2023-12-12T02:19:56.016Z,13.01
2023-12-12T02:22:23.424Z,12.96
2023-12-12T02:24:50.857Z,12.89
2023-12-12T02:27:18.197Z,12.84
2023-12-12T02:29:45.729Z,12.84
2023-12-12T02:32:13.049Z,12.81
2023-12-12T02:34:40.469Z,12.74
2023-12-12T02:37:07.724Z,12.70
2023-12-12T02:39:35.098Z,12.66
2023-12-12T02:42:02.463Z,12.62
2023-12-12T02:44:29.772Z,12.59
2023-12-12T02:46:57.109Z,12.59
2023-12-12T02:49:24.577Z,12.58
2023-12-12T02:51:52.211Z,12.55
2023-12-12T02:54:19.594Z,12.57
2023-12-12T02:56:47.107Z,12.65
2023-12-12T02:59:14.438Z,12.64
2023-12-12T03:01:41.929Z,12.63
2023-12-12T03:04:09.538Z,12.63
2023-12-12T03:06:36.914Z,12.65
2023-12-12T03:09:04.363Z,12.69
2023-12-12T03:11:32.127Z,12.88
2023-12-12T03:13:59.540Z,13.02
2023-12-12T03:16:27.145Z,13.15
2023-12-12T03:18:54.762Z,13.25
2023-12-12T03:21:22.228Z,13.24
2023-12-12T03:23:49.606Z,13.13
2023-12-12T03:26:16.926Z,13.03
2023-12-12T03:28:44.491Z,12.94
2023-12-12T03:31:11.881Z,12.85
2023-12-12T03:33:39.528Z,12.83
2023-12-12T03:36:10.669Z,12.77
2023-12-12T03:38:37.985Z,12.76
2023-12-12T03:41:05.406Z,12.76
2023-12-12T03:43:32.757Z,12.78
2023-12-12T03:46:00.093Z,12.81
2023-12-12T03:48:27.701Z,12.88
2023-12-12T03:50:55.766Z,13.05
2023-12-12T03:53:24.438Z,13.12
2023-12-12T03:55:51.678Z,13.27
2023-12-12T03:58:19.090Z,13.54
2023-12-12T04:00:46.517Z,13.72
2023-12-12T04:03:13.914Z,13.76
2023-12-12T04:05:41.730Z,13.81
2023-12-12T04:08:09.939Z,13.84
2023-12-12T04:10:37.442Z,13.88
2023-12-12T04:13:04.999Z,13.92
2023-12-12T04:15:32.712Z,13.88
2023-12-12T04:18:00.128Z,13.82
2023-12-12T04:20:27.691Z,13.78
2023-12-12T04:22:55.050Z,13.76
2023-12-12T04:25:22.753Z,13.69
2023-12-12T04:27:50.464Z,13.58
2023-12-12T04:30:18.136Z,13.53
2023-12-12T04:32:45.477Z,13.52
2023-12-12T04:35:12.884Z,13.51
2023-12-12T04:37:40.362Z,13.45
2023-12-12T04:40:08.712Z,13.47
2023-12-12T04:42:37.492Z,13.43
2023-12-12T04:45:05.413Z,13.46
2023-12-12T04:47:33.274Z,13.53
2023-12-12T04:50:01.112Z,13.55
2023-12-12T04:52:29.415Z,13.59
2023-12-12T04:54:56.772Z,13.64
2023-12-12T04:57:24.240Z,13.62
2023-12-12T04:59:51.595Z,13.61
2023-12-12T05:02:18.983Z,13.66
2023-12-12T05:04:46.211Z,13.67
2023-12-12T05:07:13.815Z,13.61
2023-12-12T05:09:41.718Z,13.67
2023-12-12T05:12:09.691Z,13.81
2023-12-12T05:14:36.933Z,13.86
2023-12-12T05:17:10.279Z,13.92
2023-12-12T05:19:38.783Z,13.91
2023-12-12T05:22:06.410Z,13.88
2023-12-12T05:24:34.471Z,13.84
2023-12-12T05:27:01.703Z,13.76
2023-12-12T05:29:29.661Z,13.71
2023-12-12T05:31:57.055Z,13.76
2023-12-12T05:34:24.550Z,13.86
2023-12-12T05:36:52.054Z,13.87
2023-12-12T05:39:19.364Z,13.84
2023-12-12T05:41:49.911Z,13.82
2023-12-12T05:44:17.593Z,13.84
2023-12-12T05:46:45.051Z,13.93
2023-12-12T05:49:12.438Z,13.93
2023-12-12T05:51:41.348Z,13.91
2023-12-12T05:54:13.703Z,13.91
2023-12-12T05:56:44.723Z,13.89
2023-12-12T05:59:15.908Z,13.87
2023-12-12T06:01:43.627Z,13.80
2023-12-12T06:04:14.822Z,13.73
2023-12-12T06:06:44.183Z,13.69
2023-12-12T06:09:13.162Z,13.70
2023-12-12T06:11:43.335Z,13.72
2023-12-12T06:14:11.333Z,13.73
2023-12-12T06:16:39.721Z,13.77
2023-12-12T06:19:07.556Z,13.76
2023-12-12T06:21:35.477Z,13.78
2023-12-12T06:24:04.067Z,13.78
2023-12-12T06:26:32.462Z,13.84
2023-12-12T06:29:00.102Z,13.98
2023-12-12T06:31:27.838Z,14.10
2023-12-12T06:33:55.487Z,14.15
2023-12-12T06:36:23.621Z,14.17
2023-12-12T06:38:50.867Z,14.17
2023-12-12T06:41:18.484Z,14.10
2023-12-12T06:43:45.807Z,13.99
2023-12-12T06:46:13.272Z,13.96
2023-12-12T06:48:40.631Z,13.93
2023-12-12T06:51:08.201Z,13.89
2023-12-12T06:53:35.449Z,13.90
2023-12-12T06:56:02.934Z,13.86
2023-12-12T06:58:30.798Z,13.86
2023-12-12T07:00:58.921Z,13.90
2023-12-12T07:03:26.301Z,13.94
2023-12-12T07:05:54.086Z,13.98
2023-12-12T07:08:23.434Z,14.06
2023-12-12T07:10:51.063Z,14.17
2023-12-12T07:13:19.675Z,14.27
2023-12-12T07:15:47.003Z,14.40
2023-12-12T07:18:15.792Z,14.54
2023-12-12T07:20:43.253Z,14.71
2023-12-12T07:23:10.662Z,14.81
2023-12-12T07:25:39.241Z,14.87
2023-12-12T07:28:06.863Z,15.00
2023-12-12T07:30:34.191Z,15.07
2023-12-12T07:33:01.664Z,15.11
2023-12-12T07:35:29.358Z,15.19
2023-12-12T07:37:57.992Z,15.25
2023-12-12T07:40:26.806Z,15.39
2023-12-12T07:42:54.306Z,15.46
2023-12-12T07:45:21.622Z,15.58
2023-12-12T07:47:49.224Z,15.62
2023-12-12T07:50:20.757Z,15.67
2023-12-12T07:52:48.966Z,15.74
2023-12-12T07:55:16.479Z,15.81
2023-12-12T07:57:45.344Z,15.93
2023-12-12T08:00:13.979Z,16.04
2023-12-12T08:02:41.931Z,16.13
2023-12-12T08:05:09.403Z,16.23
2023-12-12T08:07:37.321Z,16.24
2023-12-12T08:10:06.856Z,16.26
2023-12-12T08:12:35.561Z,16.26
2023-12-12T08:15:05.196Z,16.30
2023-12-12T08:17:33.079Z,16.31
2023-12-12T08:20:00.701Z,16.35
2023-12-12T08:22:28.362Z,16.49
2023-12-12T08:24:56.254Z,16.68
2023-12-12T08:27:23.821Z,16.69
2023-12-12T08:29:51.088Z,16.88
2023-12-12T08:32:18.528Z,16.97
2023-12-12T08:34:46.292Z,17.07
2023-12-12T08:37:14.689Z,17.14
2023-12-12T08:39:43.132Z,17.23
2023-12-12T08:42:11.772Z,17.30
2023-12-12T08:44:41.897Z,17.38
2023-12-12T08:47:09.236Z,17.41
2023-12-12T08:49:39.149Z,17.51
2023-12-12T08:52:09.712Z,17.64
2023-12-12T08:54:37.487Z,17.73
2023-12-12T08:57:07.576Z,17.84
2023-12-12T08:59:35.442Z,17.99
2023-12-12T09:02:02.914Z,18.14
2023-12-12T09:04:30.276Z,18.31
2023-12-12T09:06:57.664Z,18.40
2023-12-12T09:09:26.142Z,18.43
2023-12-12T09:11:53.507Z,18.58
2023-12-12T09:14:21.327Z,18.61
2023-12-12T09:16:48.705Z,18.65
2023-12-12T09:19:18.239Z,18.64
2023-12-12T09:21:45.721Z,18.66
2023-12-12T09:24:14.522Z,18.77
2023-12-12T09:26:42.065Z,18.72
2023-12-12T09:29:09.400Z,18.79
2023-12-12T09:31:37.044Z,18.89
2023-12-12T09:34:04.938Z,19.02
2023-12-12T09:36:33.206Z,18.99
2023-12-12T09:39:00.621Z,18.98
2023-12-12T09:41:27.982Z,19.10
2023-12-12T09:43:55.247Z,19.23
2023-12-12T09:46:24.567Z,19.43
2023-12-12T09:48:53.698Z,19.49
2023-12-12T09:51:22.873Z,19.61
2023-12-12T09:53:51.217Z,19.66
2023-12-12T09:56:19.368Z,19.77
2023-12-12T09:58:49.320Z,19.78
2023-12-12T10:01:17.453Z,19.84
2023-12-12T10:03:46.200Z,19.76
2023-12-12T10:06:14.391Z,19.74
2023-12-12T10:08:42.331Z,19.79
2023-12-12T10:11:11.469Z,19.73
2023-12-12T10:13:52.583Z,19.78
2023-12-12T10:16:20.316Z,19.81
2023-12-12T10:18:49.260Z,20.00
2023-12-12T10:21:24.347Z,20.14
2023-12-12T10:23:53.920Z,20.21
2023-12-12T10:26:34.401Z,20.39
2023-12-12T10:29:02.386Z,20.42
2023-12-12T10:31:30.313Z,20.47
2023-12-12T10:33:59.025Z,20.44
2023-12-12T10:36:26.852Z,20.48
2023-12-12T10:38:55.177Z,20.43
2023-12-12T10:41:25.995Z,20.46
2023-12-12T10:43:55.117Z,20.37
2023-12-12T10:46:24.891Z,20.34
2023-12-12T10:48:54.897Z,20.32
2023-12-12T10:51:24.775Z,20.45
2023-12-12T10:53:56.259Z,20.48
2023-12-12T10:56:24.617Z,20.62
2023-12-12T10:58:52.871Z,20.77
2023-12-12T11:01:21.015Z,20.84
2023-12-12T11:03:52.286Z,21.00
2023-12-12T11:06:20.726Z,21.13
2023-12-12T11:08:48.401Z,21.08
2023-12-12T11:11:22.575Z,21.10
2023-12-12T11:13:52.833Z,21.22
2023-12-12T11:16:20.771Z,21.25
2023-12-12T11:18:49.493Z,21.29
2023-12-12T11:21:43.161Z,21.30
2023-12-12T11:24:10.543Z,21.37
2023-12-12T11:26:38.395Z,21.43
2023-12-12T11:29:11.710Z,21.42
2023-12-12T11:31:57.154Z,21.43
2023-12-12T11:34:25.081Z,21.40
2023-12-12T11:36:59.049Z,21.43
2023-12-12T11:39:31.563Z,21.47
2023-12-12T11:42:00.577Z,21.62
2023-12-12T11:44:44.399Z,21.73
2023-12-12T11:47:16.561Z,21.89
2023-12-12T11:49:45.599Z,22.05
2023-12-12T11:52:39.028Z,22.16
2023-12-12T11:55:18.919Z,22.21
2023-12-12T11:57:46.822Z,22.23
2023-12-12T12:00:15.689Z,22.25
2023-12-12T12:02:43.287Z,22.40
2023-12-12T12:05:11.375Z,22.28
2023-12-12T12:07:41.515Z,22.13
2023-12-12T12:10:12.170Z,22.12
2023-12-12T12:12:39.547Z,22.27
2023-12-12T12:15:07.850Z,22.52
2023-12-12T12:17:36.448Z,22.64
2023-12-12T12:20:04.976Z,22.80
2023-12-12T12:22:32.995Z,22.75
2023-12-12T12:25:00.603Z,22.73
2023-12-12T12:27:28.194Z,22.79
2023-12-12T12:30:05.105Z,22.80
2023-12-12T12:32:34.162Z,22.26
2023-12-12T12:35:09.562Z,22.37
2023-12-12T12:37:38.494Z,22.36
2023-12-12T12:40:07.839Z,21.92
2023-12-12T12:42:39.846Z,21.54
2023-12-12T12:45:09.011Z,21.54
2023-12-12T12:47:36.588Z,21.35
2023-12-12T12:50:04.600Z,21.30
2023-12-12T12:52:33.245Z,21.05
2023-12-12T12:55:01.187Z,21.04
2023-12-12T12:57:28.479Z,21.05
2023-12-12T12:59:55.860Z,21.22
2023-12-12T13:02:23.232Z,21.04
2023-12-12T13:04:51.018Z,21.06
2023-12-12T13:07:18.367Z,21.08
2023-12-12T13:09:45.832Z,21.01
2023-12-12T13:12:13.122Z,20.80
2023-12-12T13:14:41.931Z,20.87
2023-12-12T13:17:10.077Z,20.83
2023-12-12T13:19:37.661Z,20.83
2023-12-12T13:22:05.365Z,20.88
2023-12-12T13:24:32.984Z,20.94
2023-12-12T13:27:00.187Z,20.91
2023-12-12T13:29:27.538Z,20.85
2023-12-12T13:31:54.796Z,20.75
2023-12-12T13:34:22.322Z,20.72
2023-12-12T13:36:49.588Z,20.55
2023-12-12T13:39:19.414Z,20.66
2023-12-12T13:41:50.038Z,20.59
2023-12-12T13:44:18.477Z,20.45
2023-12-12T13:46:46.212Z,20.41
2023-12-12T13:49:13.968Z,20.39
2023-12-12T13:51:47.114Z,20.36
2023-12-12T13:54:15.514Z,20.20
2023-12-12T13:56:44.519Z,20.17
2023-12-12T13:59:12.400Z,20.09
2023-12-12T14:01:39.935Z,20.01
2023-12-12T14:04:07.663Z,20.08
2023-12-12T14:06:35.071Z,20.00
2023-12-12T14:09:02.500Z,19.88
2023-12-12T14:11:30.406Z,19.70
2023-12-12T14:13:57.948Z,19.63
2023-12-12T14:16:29.034Z,19.57
2023-12-12T14:18:58.153Z,19.46
2023-12-12T14:21:25.403Z,19.42
2023-12-12T14:23:52.678Z,19.44
2023-12-12T14:26:23.499Z,19.35
2023-12-12T14:28:51.546Z,19.31
2023-12-12T14:31:19.719Z,19.23
2023-12-12T14:33:47.576Z,19.16
2023-12-12T14:36:15.873Z,19.09
2023-12-12T14:38:47.059Z,18.96
2023-12-12T14:41:15.391Z,18.93
2023-12-12T14:43:50.282Z,18.90
2023-12-12T14:46:18.299Z,18.87
2023-12-12T14:48:45.544Z,18.89
2023-12-12T14:51:14.930Z,18.89
2023-12-12T14:53:42.885Z,18.81
2023-12-12T14:56:11.687Z,18.79
2023-12-12T14:58:39.193Z,18.70
2023-12-12T15:01:06.936Z,18.65
2023-12-12T15:03:34.788Z,18.61
2023-12-12T15:06:04.109Z,18.61
2023-12-12T15:08:31.777Z,18.50
2023-12-12T15:14:03.001Z,18.38
2023-12-12T15:16:30.525Z,18.33
2023-12-12T15:18:58.026Z,18.22
2023-12-12T15:21:26.012Z,18.16
2023-12-12T15:23:53.277Z,18.04
2023-12-12T15:26:20.729Z,17.94
2023-12-12T15:28:48.046Z,17.87
2023-12-12T15:31:15.571Z,17.76
2023-12-12T15:33:43.047Z,17.63
2023-12-12T15:36:10.797Z,17.57
2023-12-12T15:38:38.550Z,17.53
2023-12-12T15:41:06.057Z,17.45
2023-12-12T15:43:35.386Z,17.33
2023-12-12T15:46:03.131Z,17.32
2023-12-12T15:48:30.705Z,17.30
2023-12-12T15:50:58.106Z,17.27
2023-12-12T15:53:25.854Z,17.27
2023-12-12T15:55:53.008Z,17.24
2023-12-12T15:58:21.334Z,17.22
2023-12-12T16:00:48.798Z,17.17
2023-12-12T16:03:16.101Z,17.15
2023-12-12T16:05:44.382Z,17.06
2023-12-12T16:08:13.668Z,17.01
2023-12-12T16:10:42.044Z,16.91
2023-12-12T16:13:11.782Z,16.86
2023-12-12T16:15:39.248Z,16.81
2023-12-12T16:18:06.447Z,16.84
2023-12-12T16:20:33.807Z,16.87
2023-12-12T16:23:01.337Z,16.91
2023-12-12T16:25:28.683Z,16.85
2023-12-12T16:27:57.765Z,16.78
2023-12-12T16:30:28.739Z,16.75
2023-12-12T16:33:01.201Z,16.69
2023-12-12T16:35:28.805Z,16.68
2023-12-12T16:37:56.229Z,16.63
2023-12-12T16:40:23.596Z,16.61
2023-12-12T16:42:50.969Z,16.57
2023-12-12T16:45:18.258Z,16.55
2023-12-12T16:47:45.750Z,16.55
2023-12-12T16:50:13.637Z,16.55
2023-12-12T16:52:40.846Z,16.56
2023-12-12T16:55:08.502Z,16.56
2023-12-12T16:57:37.759Z,16.50
2023-12-12T17:00:12.158Z,16.53
2023-12-12T17:02:39.819Z,16.53
2023-12-12T17:05:07.490Z,16.53
2023-12-12T17:07:35.331Z,16.50
2023-12-12T17:10:09.198Z,16.45
2023-12-12T17:12:40.332Z,16.42
2023-12-12T17:15:09.467Z,16.40
2023-12-12T17:17:36.903Z,16.36
2023-12-12T17:20:04.740Z,16.34
2023-12-12T17:22:32.252Z,16.33
2023-12-12T17:24:59.628Z,16.32
2023-12-12T17:27:27.249Z,16.28
2023-12-12T17:29:54.906Z,16.25
2023-12-12T17:32:22.464Z,16.22
2023-12-12T17:34:50.661Z,16.17
2023-12-12T17:37:18.130Z,16.13
2023-12-12T17:39:45.322Z,16.11
2023-12-12T17:42:12.692Z,16.10
2023-12-12T17:44:40.662Z,16.06
2023-12-12T17:47:08.015Z,16.06
2023-12-12T17:49:37.824Z,16.04
2023-12-12T17:52:05.725Z,16.03
2023-12-12T17:54:32.934Z,15.99
2023-12-12T17:57:00.345Z,15.95
2023-12-12T17:59:27.557Z,15.92
2023-12-12T18:01:55.627Z,15.88
2023-12-12T18:04:23.016Z,15.87
2023-12-12T18:06:50.378Z,15.87
2023-12-12T18:09:20.869Z,15.84
2023-12-12T18:11:48.244Z,15.83
2023-12-12T18:14:15.452Z,15.83
2023-12-12T18:16:42.874Z,15.81
2023-12-12T18:19:10.499Z,15.78
2023-12-12T18:21:38.783Z,15.78
2023-12-12T18:24:06.499Z,15.78
2023-12-12T18:26:33.854Z,15.73
2023-12-12T18:29:05.225Z,15.74
2023-12-12T18:31:33.395Z,15.69
2023-12-12T18:34:01.113Z,15.69
2023-12-12T18:36:28.981Z,15.67
2023-12-12T18:38:56.315Z,15.66
2023-12-12T18:41:24.322Z,15.63
2023-12-12T18:43:51.775Z,15.61
2023-12-12T18:46:19.416Z,15.60
2023-12-12T18:48:47.094Z,15.58
2023-12-12T18:51:14.476Z,15.56
2023-12-12T18:53:41.851Z,15.55
2023-12-12T18:56:10.507Z,15.52
2023-12-12T18:58:38.526Z,15.50
2023-12-12T19:01:06.080Z,15.50
2023-12-12T19:03:33.534Z,15.51
2023-12-12T19:06:00.892Z,15.50
2023-12-12T19:08:28.960Z,15.48
2023-12-12T19:10:56.357Z,15.48
2023-12-12T19:13:24.944Z,15.47
2023-12-12T19:15:53.592Z,15.48
2023-12-12T19:18:21.647Z,15.47
2023-12-12T19:20:49.151Z,15.46
2023-12-12T19:23:17.008Z,15.45
2023-12-12T19:25:44.522Z,15.41
2023-12-12T19:28:11.960Z,15.43
2023-12-12T19:30:39.400Z,15.41
2023-12-12T19:33:09.787Z,15.39
2023-12-12T19:35:39.054Z,15.36
2023-12-12T19:38:07.573Z,15.35
2023-12-12T19:40:37.712Z,15.35
2023-12-12T19:43:05.581Z,15.34
2023-12-12T19:45:32.949Z,15.37
2023-12-12T19:48:00.430Z,15.37
2023-12-12T19:50:28.098Z,15.37
2023-12-12T19:52:55.468Z,15.36
2023-12-12T19:55:24.526Z,15.35
2023-12-12T19:57:51.867Z,15.34
2023-12-12T20:00:19.659Z,15.39
2023-12-12T20:02:46.966Z,15.42
2023-12-12T20:05:14.372Z,15.44
2023-12-12T20:07:42.001Z,15.44
2023-12-12T20:10:14.329Z,15.39
2023-12-12T20:12:46.816Z,15.34
2023-12-12T20:15:16.347Z,15.33
2023-12-12T20:17:44.223Z,15.31
2023-12-12T20:20:13.219Z,15.31
2023-12-12T20:22:40.767Z,15.27
2023-12-12T20:25:08.549Z,15.22
2023-12-12T20:27:38.109Z,15.21
2023-12-12T20:30:07.161Z,15.23
2023-12-12T20:32:34.569Z,15.28
2023-12-12T20:35:04.590Z,15.36
2023-12-12T20:37:32.500Z,15.37
2023-12-12T20:39:59.985Z,15.33
2023-12-12T20:42:28.063Z,15.30
2023-12-12T20:44:56.345Z,15.28
2023-12-12T20:47:23.809Z,15.27
2023-12-12T20:49:51.498Z,15.31
2023-12-12T20:52:19.071Z,15.30
2023-12-12T20:54:46.747Z,15.30
2023-12-12T20:57:17.363Z,15.25
2023-12-12T20:59:44.708Z,15.23
2023-12-12T21:02:12.131Z,15.20
2023-12-12T21:04:42.559Z,15.16
2023-12-12T21:07:11.184Z,15.15
2023-12-12T21:09:38.537Z,15.16
2023-12-12T21:12:06.035Z,15.14
2023-12-12T21:14:33.414Z,15.11
2023-12-12T21:17:03.487Z,15.08
2023-12-12T21:19:31.381Z,15.07
2023-12-12T21:21:58.751Z,15.02
2023-12-12T21:24:26.178Z,15.01
2023-12-12T21:26:53.600Z,15.00
2023-12-12T21:29:21.012Z,14.96
2023-12-12T21:31:48.556Z,14.95
2023-12-12T21:34:16.122Z,14.93
2023-12-12T21:36:43.511Z,14.90
2023-12-12T21:39:10.913Z,14.87
2023-12-12T21:41:41.745Z,14.83
2023-12-12T21:44:09.180Z,14.82
2023-12-12T21:46:36.744Z,14.76
2023-12-12T21:49:04.298Z,14.68
2023-12-12T21:51:31.639Z,14.64
2023-12-12T21:53:58.986Z,14.53
2023-12-12T21:56:26.310Z,14.44
2023-12-12T21:58:57.156Z,14.40
2023-12-12T22:01:25.836Z,14.26
2023-12-12T22:03:53.249Z,14.10
2023-12-12T22:06:20.505Z,13.93
2023-12-12T22:08:47.864Z,13.81
2023-12-12T22:11:16.500Z,13.69
2023-12-12T22:13:44.746Z,13.65
2023-12-12T22:16:26.150Z,13.52
2023-12-12T22:18:57.600Z,13.42
2023-12-12T22:21:28.403Z,13.31
2023-12-12T22:23:56.441Z,13.20
2023-12-12T22:26:24.203Z,13.16
2023-12-12T22:28:52.700Z,13.10
2023-12-12T22:31:19.995Z,13.03
2023-12-12T22:33:47.410Z,12.97
2023-12-12T22:36:21.004Z,12.99
2023-12-12T22:38:49.982Z,13.06
2023-12-12T22:41:21.493Z,13.14
2023-12-12T22:43:49.891Z,13.21
2023-12-12T22:46:21.148Z,13.28
2023-12-12T22:48:49.880Z,13.30
2023-12-12T22:51:20.060Z,13.36
2023-12-12T22:53:47.511Z,13.36
2023-12-12T22:56:15.485Z,13.46
2023-12-12T22:58:43.301Z,13.57
2023-12-12T23:01:14.217Z,13.70
2023-12-12T23:03:41.529Z,13.78
2023-12-12T23:06:09.261Z,13.80
2023-12-12T23:08:36.786Z,13.83
2023-12-12T23:11:04.726Z,13.82
2023-12-12T23:13:32.005Z,13.85
2023-12-12T23:15:59.584Z,13.87
2023-12-12T23:18:26.979Z,13.88
2023-12-12T23:20:56.499Z,13.88
2023-12-12T23:23:24.477Z,13.91
2023-12-12T23:25:51.884Z,13.96
2023-12-12T23:28:19.394Z,14.01
2023-12-12T23:31:00.516Z,14.04
2023-12-12T23:33:35.083Z,14.10
2023-12-12T23:36:02.517Z,14.12
2023-12-12T23:38:29.923Z,14.13
2023-12-12T23:40:57.300Z,14.11
2023-12-12T23:43:24.688Z,14.07
2023-12-12T23:45:52.157Z,14.22
2023-12-12T23:48:19.755Z,14.43
2023-12-12T23:50:47.189Z,14.49
2023-12-12T23:53:14.447Z,14.53
2023-12-12T23:55:42.415Z,14.53
2023-12-12T23:58:09.817Z,14.62
